M I D A S
Marine Information and Data Acquisition System
Tripno 1667 of the Zeeleeuw from 2009-03-30 06:45:18 to 2009-03-30 15:00:56
Back to CruiseResearch ActivitiesStationsMapUnderway DataData graphs

EquipmentUnitsComment
TimeDGPSUTC
LatitudeDGPSDM.mWGS84
LongitudeDGPSDM.mWGS84
HeadingGyrodeg 
SOGDGPSknotsSpeed over ground
COGDGPSdegCourse over ground
DepthEcho soundermeters200 kHz
Missing or incorrect values are displayed as -999
Navigation data collected by the RV Zeeleeuw from 2009-03-30 05:57:48 to 2009-03-30 15:07:51
Time Latitude Longitude Heading SOG COG Depth
2009-03-30 05:58:53 51°13.664 2°55.956 126.6 -999 151 -999
2009-03-30 05:59:53 51°13.664 2°55.957 127.4 -999 138 -999
2009-03-30 06:00:54 51°13.663 2°55.957 127.2 -999 69 -999
2009-03-30 06:01:53 51°13.664 2°55.957 127.9 -999 114 -999
2009-03-30 06:02:53 51°13.663 2°55.957 126.9 -999 311 -999
2009-03-30 06:03:54 51°13.663 2°55.958 126.5 -999 182 -999
2009-03-30 06:04:53 51°13.665 2°55.958 127.3 -999 142 -999
2009-03-30 06:05:54 51°13.662 2°55.957 127.9 -999 345 -999
2009-03-30 06:06:54 51°13.664 2°55.957 126.9 -999 7 -999
2009-03-30 06:07:53 51°13.665 2°55.957 126.5 -999 124 -999
2009-03-30 06:08:54 51°13.664 2°55.958 127.1 0.1 173 -999
2009-03-30 06:09:53 51°13.664 2°55.958 127.9 -999 311 -999
2009-03-30 06:10:54 51°13.664 2°55.958 128.2 -999 26 -999
2009-03-30 06:11:53 51°13.664 2°55.958 128.4 -999 120 -999
2009-03-30 06:12:53 51°13.664 2°55.958 128.3 -999 130 -999
2009-03-30 06:13:53 51°13.664 2°55.958 126.7 -999 155 -999
2009-03-30 06:14:53 51°13.664 2°55.958 127.7 -999 327 -999
2009-03-30 06:15:53 51°13.664 2°55.957 127.6 -999 188 -999
2009-03-30 06:16:53 51°13.664 2°55.958 128.5 -999 3 -999
2009-03-30 06:17:53 51°13.664 2°55.957 127.7 -999 4 -999
2009-03-30 06:18:53 51°13.664 2°55.957 127.1 -999 273 -999
2009-03-30 06:19:53 51°13.663 2°55.958 127.7 -999 82 -999
2009-03-30 06:20:53 51°13.664 2°55.959 128.6 -999 282 -999
2009-03-30 06:21:53 51°13.664 2°55.959 127.7 -999 343 -999
2009-03-30 06:22:53 51°13.664 2°55.959 126.6 -999 148 -999
2009-03-30 06:23:54 51°13.664 2°55.959 126.9 -999 135 -999
2009-03-30 06:24:54 51°13.664 2°55.959 127 -999 219 5.7
2009-03-30 06:25:52 51°13.663 2°55.959 127.5 -999 46 5.7
2009-03-30 06:26:51 51°13.664 2°55.959 127.3 -999 83 5.6
2009-03-30 06:27:51 51°13.663 2°55.958 127.5 -999 357 5.7
2009-03-30 06:28:51 51°13.663 2°55.958 126.8 -999 20 5.7
2009-03-30 06:29:50 51°13.664 2°55.958 126.5 -999 116 5.6
2009-03-30 06:30:50 51°13.663 2°55.957 126 -999 140 5.6
2009-03-30 06:31:50 51°13.664 2°55.958 125.9 -999 326 5.6
2009-03-30 06:32:50 51°13.664 2°55.958 126 -999 331 5.5
2009-03-30 06:33:52 51°13.662 2°55.958 128.7 -999 204 -999
2009-03-30 06:34:51 51°13.663 2°55.958 128.6 -999 152 5.6
2009-03-30 06:35:52 51°13.663 2°55.958 129.3 -999 192 -999
2009-03-30 06:36:50 51°13.663 2°55.958 126.8 -999 127 5.5
2009-03-30 06:37:50 51°13.662 2°55.958 120.4 -999 267 5.6
2009-03-30 06:38:50 51°13.662 2°55.956 113.3 0.7 296 5.5
2009-03-30 06:39:54 51°13.677 2°55.913 117.7 1.9 300 -999
2009-03-30 06:40:54 51°13.694 2°55.85 103.6 3 285 -999
2009-03-30 06:41:54 51°13.703 2°55.773 90.3 2.7 275 -999
2009-03-30 06:42:53 51°13.706 2°55.741 66.4 0.5 19 11.5
2009-03-30 06:43:50 51°13.713 2°55.746 27.7 0.5 219 11.1
2009-03-30 06:44:51 51°13.717 2°55.737 350.3 2.4 344 11
2009-03-30 06:45:50 51°13.795 2°55.665 331.9 7.6 331 9.8
2009-03-30 06:46:50 51°13.924 2°55.562 335.6 9.2 335 10.2
2009-03-30 06:47:50 51°14.065 2°55.459 337.5 9.4 336 10.1
2009-03-30 06:48:50 51°14.203 2°55.342 328.2 9.4 325 10.2
2009-03-30 06:49:50 51°14.321 2°55.166 313.8 10.3 313 10.2
2009-03-30 06:50:50 51°14.426 2°54.949 299.8 10.3 293 9.9
2009-03-30 06:51:50 51°14.411 2°54.663 249.5 11.9 247 9.9
2009-03-30 06:52:50 51°14.319 2°54.369 243.4 12.5 242 8.6
2009-03-30 06:53:50 51°14.274 2°54.124 287.2 6.7 285 8.6
2009-03-30 06:54:51 51°14.354 2°54.044 2.5 6.9 356 9
2009-03-30 06:55:51 51°14.503 2°54.058 10.3 10.4 4 9.3
2009-03-30 06:56:51 51°14.689 2°54.084 12.9 11.5 8 10.5
2009-03-30 06:57:51 51°14.878 2°54.122 11.6 11.4 6 8.6
2009-03-30 06:58:51 51°15.068 2°54.151 11.6 11.3 5 8
2009-03-30 06:59:50 51°15.258 2°54.188 13.3 12 8 10.7
2009-03-30 07:00:50 51°15.45 2°54.231 14.1 11.7 8 8.9
2009-03-30 07:01:51 51°15.647 2°54.274 13.2 11.7 8 9.5
2009-03-30 07:02:51 51°15.839 2°54.316 12.7 11.3 7 10
2009-03-30 07:03:51 51°16.012 2°54.348 11.8 9.9 6 10.4
2009-03-30 07:04:51 51°16.143 2°54.353 356.9 5.6 344 10.7
2009-03-30 07:05:51 51°16.205 2°54.297 341.2 3.5 323 10.6
2009-03-30 07:06:51 51°16.24 2°54.246 333.2 2.2 308 10.7
2009-03-30 07:07:51 51°16.254 2°54.201 316.1 1.8 290 10.6
2009-03-30 07:08:51 51°16.262 2°54.159 305.2 1.5 283 10.6
2009-03-30 07:09:51 51°16.267 2°54.121 298.9 1.4 280 10.6
2009-03-30 07:10:51 51°16.271 2°54.085 294.9 1.3 283 10.7
2009-03-30 07:11:50 51°16.273 2°54.053 293.2 1.3 269 10.6
2009-03-30 07:12:50 51°16.278 2°54.018 293 2.2 288 10.6
2009-03-30 07:13:50 51°16.307 2°53.887 298.1 8.1 293 10.6
2009-03-30 07:14:50 51°16.399 2°53.669 319 10.9 313 10.8
2009-03-30 07:15:50 51°16.539 2°53.451 322.3 12.3 315 10.8
2009-03-30 07:16:50 51°16.688 2°53.222 321.3 12.5 316 10.6
2009-03-30 07:17:50 51°16.832 2°52.987 319.6 12.2 315 8.2
2009-03-30 07:18:50 51°16.973 2°52.755 318 12.3 313 8.7
2009-03-30 07:19:50 51°17.117 2°52.523 321.8 12.2 318 8.9
2009-03-30 07:20:50 51°17.275 2°52.315 326.8 12.4 322 9.5
2009-03-30 07:21:50 51°17.44 2°52.123 329.8 12.3 326 9.5
2009-03-30 07:22:50 51°17.608 2°51.938 329.7 12.3 325 9.5
2009-03-30 07:23:50 51°17.775 2°51.752 328.8 12.1 324 9
2009-03-30 07:24:50 51°17.937 2°51.556 328.1 12.2 322 9.5
2009-03-30 07:25:50 51°18.106 2°51.374 335.1 12.1 328 10.6
2009-03-30 07:26:50 51°18.259 2°51.223 334.7 9.4 327 11.7
2009-03-30 07:27:50 51°18.372 2°51.102 333.6 6.9 326 12.5
2009-03-30 07:28:50 51°18.447 2°51.014 330 4.7 323 12.8
2009-03-30 07:29:50 51°18.495 2°50.957 334 2.5 319 13
2009-03-30 07:30:50 51°18.516 2°50.919 317.3 1.7 306 13
2009-03-30 07:31:50 51°18.529 2°50.884 306.9 1.4 293 13.2
2009-03-30 07:32:50 51°18.538 2°50.854 301 1.2 286 13.1
2009-03-30 07:33:50 51°18.544 2°50.827 298.1 1 289 13.2
2009-03-30 07:34:50 51°18.553 2°50.796 306.6 2.2 300 13.2
2009-03-30 07:35:50 51°18.594 2°50.757 10.2 3.3 3 13.2
2009-03-30 07:36:50 51°18.644 2°50.825 58.9 6 52 13.4
2009-03-30 07:37:50 51°18.711 2°51.002 65.1 9.1 61 13.3
2009-03-30 07:38:50 51°18.78 2°51.25 73.3 10.8 71 13.2
2009-03-30 07:39:50 51°18.837 2°51.52 73.8 10.7 71 13.1
2009-03-30 07:40:50 51°18.894 2°51.79 74.4 10.7 72 13
2009-03-30 07:41:50 51°18.949 2°52.061 75.1 10.7 74 12.6
2009-03-30 07:42:50 51°19.003 2°52.332 73.9 10.7 72 12.3
2009-03-30 07:43:50 51°19.055 2°52.602 74.2 10.6 72 11.9
2009-03-30 07:44:50 51°19.11 2°52.871 73.7 10.6 73 11.5
2009-03-30 07:45:50 51°19.168 2°53.138 72.6 10.7 69 11.3
2009-03-30 07:46:50 51°19.224 2°53.406 73.6 10.6 73 11.1
2009-03-30 07:47:50 51°19.263 2°53.682 78.8 10.7 78 11
2009-03-30 07:48:50 51°19.293 2°53.96 82.1 10.6 80 10.9
2009-03-30 07:49:50 51°19.326 2°54.236 80.3 10.7 79 10.9
2009-03-30 07:50:50 51°19.355 2°54.516 80.9 10.7 82 10.8
2009-03-30 07:51:50 51°19.394 2°54.789 74.1 10.5 72 10.6
2009-03-30 07:52:50 51°19.453 2°55.051 70.1 10.5 69 10.7
2009-03-30 07:53:50 51°19.521 2°55.31 70.9 10.6 70 10.5
2009-03-30 07:54:50 51°19.572 2°55.576 75.6 10.5 73 10.5
2009-03-30 07:55:50 51°19.629 2°55.844 72.8 10.8 67 10.4
2009-03-30 07:56:50 51°19.688 2°56.116 75.4 10.9 72 10.3
2009-03-30 07:57:50 51°19.745 2°56.388 73.5 10.9 69 10.2
2009-03-30 07:58:50 51°19.801 2°56.659 72.6 10.7 69 10.1
2009-03-30 07:59:50 51°19.861 2°56.924 73.1 10.5 73 9.9
2009-03-30 08:00:50 51°19.916 2°57.189 74.3 10.6 71 9.8
2009-03-30 08:01:50 51°19.969 2°57.453 74.1 10.4 71 9.8
2009-03-30 08:02:50 51°20.018 2°57.72 75.2 10.4 75 9.5
2009-03-30 08:03:50 51°20.066 2°57.986 76.3 10.4 75 9.5
2009-03-30 08:04:50 51°20.115 2°58.25 72.8 10.3 73 9.4
2009-03-30 08:05:50 51°20.171 2°58.508 72.8 10.2 70 9.3
2009-03-30 08:06:50 51°20.219 2°58.768 73.9 10.2 71 9.2
2009-03-30 08:07:50 51°20.268 2°59.026 73.7 10.1 70 8.9
2009-03-30 08:08:50 51°20.322 2°59.279 73.1 10.1 69 8.8
2009-03-30 08:09:51 51°20.375 2°59.536 73 10.1 75 8.8
2009-03-30 08:10:50 51°20.422 2°59.789 76.3 10.2 76 8.8
2009-03-30 08:11:50 51°20.465 3°0.049 75.6 10.1 77 8.8
2009-03-30 08:12:50 51°20.511 3°0.307 75.3 10 74 8.8
2009-03-30 08:13:50 51°20.56 3°0.56 72.7 10 71 8.8
2009-03-30 08:14:50 51°20.607 3°0.815 75.5 10 73 8.7
2009-03-30 08:15:50 51°20.655 3°1.069 73.3 10 73 8.8
2009-03-30 08:16:51 51°20.706 3°1.326 72.7 10 72 8.7
2009-03-30 08:17:50 51°20.756 3°1.573 73.4 9.9 73 8.7
2009-03-30 08:18:51 51°20.808 3°1.825 73.4 9.8 72 8.7
2009-03-30 08:19:50 51°20.858 3°2.07 73.3 9.8 72 8.5
2009-03-30 08:20:51 51°20.907 3°2.323 73.4 9.9 74 8.5
2009-03-30 08:21:50 51°20.954 3°2.569 73.6 9.8 72 8.6
2009-03-30 08:22:50 51°21 3°2.819 74.4 9.8 74 8.5
2009-03-30 08:23:50 51°21.041 3°3.072 76.7 9.8 76 8.5
2009-03-30 08:24:50 51°21.084 3°3.323 75.8 9.7 75 8.5
2009-03-30 08:25:51 51°21.133 3°3.577 73 9.8 73 8.7
2009-03-30 08:26:50 51°21.179 3°3.821 75.5 9.8 75 8.8
2009-03-30 08:27:51 51°21.219 3°4.075 75.6 9.7 76 8.9
2009-03-30 08:28:50 51°21.275 3°4.315 69.5 9.7 69 8.9
2009-03-30 08:29:51 51°21.331 3°4.559 69.9 9.6 69 9.1
2009-03-30 08:30:50 51°21.386 3°4.798 70.4 9.8 68 9.1
2009-03-30 08:31:51 51°21.447 3°5.042 67.9 9.7 66 9.2
2009-03-30 08:32:50 51°21.507 3°5.277 70.9 9.7 72 9.2
2009-03-30 08:33:50 51°21.561 3°5.521 71.6 9.7 71 9.1
2009-03-30 08:34:51 51°21.62 3°5.766 68.7 9.7 68 9.3
2009-03-30 08:35:50 51°21.679 3°6.001 69.3 9.7 69 9.4
2009-03-30 08:36:51 51°21.732 3°6.25 76.1 9.7 74 9.5
2009-03-30 08:37:50 51°21.768 3°6.498 77 9.9 79 9.6
2009-03-30 08:38:51 51°21.786 3°6.762 88.7 9.9 89 9.6
2009-03-30 08:39:51 51°21.77 3°7.027 92.3 10 96 9.7
2009-03-30 08:40:51 51°21.752 3°7.293 92.5 10.1 99 9.7
2009-03-30 08:41:51 51°21.738 3°7.559 92.4 10.1 97 9.4
2009-03-30 08:42:50 51°21.77 3°7.804 71.5 9.8 70 9.4
2009-03-30 08:43:51 51°21.83 3°8.05 69 9.8 67 9.6
2009-03-30 08:44:50 51°21.898 3°8.282 65 9.8 65 9.8
2009-03-30 08:45:51 51°21.975 3°8.515 66.2 9.7 65 10.1
2009-03-30 08:46:50 51°22.033 3°8.752 71.8 9.7 72 10.3
2009-03-30 08:47:51 51°22.082 3°9.004 76.2 9.9 76 10.7
2009-03-30 08:48:51 51°22.121 3°9.259 76.2 9.9 77 11
2009-03-30 08:49:51 51°22.164 3°9.515 74.4 10 74 11.4
2009-03-30 08:50:51 51°22.211 3°9.769 75.4 10 74 11.8
2009-03-30 08:51:50 51°22.249 3°10.023 77.6 10 76 12.1
2009-03-30 08:52:51 51°22.289 3°10.286 77 10 75 12.9
2009-03-30 08:53:53 51°22.331 3°10.556 78.9 10.2 77 16.8
2009-03-30 08:54:53 51°22.366 3°10.821 82.4 10.2 77 14.6
2009-03-30 08:55:50 51°22.391 3°11.075 82.9 10.1 85 13.9
2009-03-30 08:56:50 51°22.411 3°11.346 83.7 10.4 81 14
2009-03-30 08:57:50 51°22.434 3°11.617 83.1 10.2 81 13.8
2009-03-30 08:58:50 51°22.456 3°11.887 83.8 10.1 84 13.6
2009-03-30 08:59:50 51°22.477 3°12.156 83.8 10.2 80 12.9
2009-03-30 09:00:50 51°22.499 3°12.427 84 10.3 85 12.6
2009-03-30 09:01:50 51°22.525 3°12.697 82.8 10.2 81 11.7
2009-03-30 09:02:50 51°22.55 3°12.951 82 8.2 80 11
2009-03-30 09:03:50 51°22.566 3°13.11 84.7 4.5 83 10.6
2009-03-30 09:04:50 51°22.589 3°13.177 51 2.4 24 10.5
2009-03-30 09:05:50 51°22.623 3°13.173 23.4 1.8 343 10.5
2009-03-30 09:06:50 51°22.647 3°13.157 25 1.3 340 10.5
2009-03-30 09:07:50 51°22.664 3°13.142 25.7 1.2 326 10.4
2009-03-30 09:08:50 51°22.68 3°13.125 19 1.1 320 10.4
2009-03-30 09:09:49 51°22.696 3°13.103 7.7 2.1 335 10.5
2009-03-30 09:10:50 51°22.782 3°13.064 356.4 8 346 10.2
2009-03-30 09:11:50 51°22.938 3°12.994 356 10.7 345 9.9
2009-03-30 09:12:50 51°23.121 3°12.93 355 11.6 345 9.8
2009-03-30 09:13:51 51°23.312 3°12.835 350.6 11.8 341 9.6
2009-03-30 09:14:50 51°23.493 3°12.725 348.7 11.8 339 9.5
2009-03-30 09:15:51 51°23.68 3°12.611 349.2 11.9 339 9.8
2009-03-30 09:16:50 51°23.862 3°12.504 349.2 11.8 339 10.4
2009-03-30 09:17:50 51°24.045 3°12.384 347 12.1 336 13.2
2009-03-30 09:18:50 51°24.224 3°12.232 340.2 12.3 329 16.9
2009-03-30 09:19:50 51°24.399 3°12.054 337.8 12.6 323 16.9
2009-03-30 09:20:50 51°24.568 3°11.86 335.4 12.3 327 14.3
2009-03-30 09:21:50 51°24.739 3°11.69 338.2 12 329 10.9
2009-03-30 09:22:50 51°24.91 3°11.527 338.2 11.9 330 9.8
2009-03-30 09:23:50 51°25.08 3°11.372 338.6 11.7 331 8.7
2009-03-30 09:24:50 51°25.248 3°11.225 335.4 11.5 329 8
2009-03-30 09:25:50 51°25.409 3°11.066 333.3 11.2 328 7.3
2009-03-30 09:26:50 51°25.566 3°10.915 333.8 10.9 328 6.5
2009-03-30 09:27:50 51°25.711 3°10.757 327.2 10.5 320 6.1
2009-03-30 09:28:50 51°25.836 3°10.557 319.3 10.8 313 6.3
2009-03-30 09:29:50 51°25.959 3°10.343 320.2 10.8 314 6.6
2009-03-30 09:30:50 51°26.053 3°10.091 299.7 11.4 292 6.9
2009-03-30 09:31:50 51°26.116 3°9.8 295.5 11.6 289 -999
2009-03-30 09:32:50 51°26.177 3°9.508 295.7 11.7 289 7.6
2009-03-30 09:33:50 51°26.242 3°9.216 297.5 11.5 291 7.9
2009-03-30 09:34:50 51°26.31 3°8.929 297.7 10.9 290 8.5
2009-03-30 09:35:50 51°26.37 3°8.683 300.7 9.5 292 9
2009-03-30 09:36:50 51°26.41 3°8.495 298.2 5.8 285 9.3
2009-03-30 09:37:50 51°26.422 3°8.378 292.6 3.4 273 9.3
2009-03-30 09:38:50 51°26.421 3°8.324 318.6 1.4 271 9.2
2009-03-30 09:39:50 51°26.418 3°8.293 321.6 1 258 9.2
2009-03-30 09:40:51 51°26.412 3°8.268 316.4 1 239 9.1
2009-03-30 09:41:50 51°26.402 3°8.249 313.4 1.1 225 9.1
2009-03-30 09:42:50 51°26.394 3°8.209 286 3.1 265 9
2009-03-30 09:43:50 51°26.417 3°8.046 300.3 9 292 8.5
2009-03-30 09:44:51 51°26.493 3°7.8 306.5 11 298 8.4
2009-03-30 09:45:50 51°26.578 3°7.533 305.4 11.7 296 9.4
2009-03-30 09:46:51 51°26.67 3°7.254 308.8 11.6 301 10.1
2009-03-30 09:47:51 51°26.777 3°6.998 313.5 11.5 305 10.5
2009-03-30 09:48:50 51°26.893 3°6.759 315.1 11.6 307 10.9
2009-03-30 09:49:51 51°27.012 3°6.507 313.5 11.7 305 11.4
2009-03-30 09:50:50 51°27.123 3°6.258 311.7 11.7 305 11.8
2009-03-30 09:51:50 51°27.235 3°6.001 313 11.7 306 12.3
2009-03-30 09:52:51 51°27.348 3°5.739 312.3 11.8 305 12.7
2009-03-30 09:53:51 51°27.458 3°5.478 312.2 11.8 305 13.7
2009-03-30 09:54:50 51°27.568 3°5.224 313.2 11.8 305 13.4
2009-03-30 09:55:50 51°27.68 3°4.965 312.8 11.8 305 13.1
2009-03-30 09:56:50 51°27.792 3°4.707 312.4 11.8 304 12.8
2009-03-30 09:57:50 51°27.902 3°4.445 312 11.9 304 15.1
2009-03-30 09:58:50 51°28.014 3°4.184 312.2 11.9 304 17
2009-03-30 09:59:50 51°28.125 3°3.921 312.5 11.9 304 18.8
2009-03-30 10:00:51 51°28.232 3°3.663 312.2 9.7 302 20.4
2009-03-30 10:01:51 51°28.284 3°3.501 303.7 5 288 21.3
2009-03-30 10:02:51 51°28.287 3°3.414 283.6 2.1 255 21.6
2009-03-30 10:03:51 51°28.276 3°3.379 279.3 1.3 238 21.6
2009-03-30 10:04:50 51°28.265 3°3.356 296.9 1.1 226 21.6
2009-03-30 10:05:51 51°28.252 3°3.337 320.6 1.1 222 21.8
2009-03-30 10:06:50 51°28.239 3°3.319 336.1 1 220 21.5
2009-03-30 10:07:50 51°28.225 3°3.303 343.3 1 214 21.6
2009-03-30 10:08:50 51°28.218 3°3.281 333.3 1.4 276 21.6
2009-03-30 10:09:50 51°28.219 3°3.222 289.3 2.8 262 21.7
2009-03-30 10:10:50 51°28.208 3°3.096 274.3 7.8 266 21.9
2009-03-30 10:11:50 51°28.193 3°2.82 265 11.6 259 22.2
2009-03-30 10:12:51 51°28.137 3°2.493 258.5 13.1 255 22.9
2009-03-30 10:13:51 51°28.074 3°2.155 256.9 13.3 253 22.8
2009-03-30 10:14:51 51°28.013 3°1.813 259.9 13.4 254 22.9
2009-03-30 10:15:49 51°27.96 3°1.479 259.6 13.3 255 22.6
2009-03-30 10:16:50 51°27.901 3°1.128 259.1 13.5 256 22.8
2009-03-30 10:17:51 51°27.841 3°0.776 259.2 13.5 255 21.4
2009-03-30 10:18:50 51°27.778 3°0.437 259.1 13.5 254 20.7
2009-03-30 10:19:51 51°27.709 3°0.087 257.7 13.6 252 17.7
2009-03-30 10:20:50 51°27.645 2°59.746 261.2 13.5 254 18
2009-03-30 10:21:51 51°27.581 2°59.393 259.8 13.6 253 19.7
2009-03-30 10:22:50 51°27.521 2°59.051 258.5 13.6 253 18.7
2009-03-30 10:23:51 51°27.46 2°58.698 261 13.6 255 15.4
2009-03-30 10:24:51 51°27.401 2°58.349 259.5 13.6 254 16.6
2009-03-30 10:25:50 51°27.342 2°58.007 260.1 13.5 255 19.6
2009-03-30 10:26:51 51°27.278 2°57.654 259.9 13.5 254 21.3
2009-03-30 10:27:50 51°27.217 2°57.313 259.4 13.6 255 23.7
2009-03-30 10:28:51 51°27.15 2°56.961 259.4 13.6 253 23
2009-03-30 10:29:50 51°27.09 2°56.616 260.5 13.7 253 21
2009-03-30 10:30:51 51°27.03 2°56.261 259.9 13.5 255 25.9
2009-03-30 10:31:50 51°26.969 2°55.92 257.8 13.5 253 28.2
2009-03-30 10:32:51 51°26.908 2°55.569 258.5 13.6 254 28.2
2009-03-30 10:33:51 51°26.843 2°55.222 258.2 13.7 252 26
2009-03-30 10:34:50 51°26.782 2°54.878 259 13.6 255 26.2
2009-03-30 10:35:50 51°26.721 2°54.528 259.6 13.7 253 22.9
2009-03-30 10:36:50 51°26.662 2°54.176 260.7 13.5 257 31.1
2009-03-30 10:37:50 51°26.602 2°53.829 258.9 13.6 254 31.8
2009-03-30 10:38:50 51°26.541 2°53.482 259.6 13.4 257 31.2
2009-03-30 10:39:50 51°26.478 2°53.139 258.4 13.4 254 29.7
2009-03-30 10:40:50 51°26.421 2°52.792 260.6 13.6 255 25
2009-03-30 10:41:50 51°26.36 2°52.445 258 13.6 254 26.8
2009-03-30 10:42:50 51°26.303 2°52.097 258.6 13.5 254 25.3
2009-03-30 10:43:50 51°26.243 2°51.748 259.9 13.6 254 24.4
2009-03-30 10:44:50 51°26.186 2°51.399 259 13.5 255 26.2
2009-03-30 10:45:50 51°26.13 2°51.049 259.8 13.5 256 22.7
2009-03-30 10:46:51 51°26.068 2°50.693 258.1 13.6 254 23
2009-03-30 10:47:51 51°26.013 2°50.34 260 13.6 256 22.6
2009-03-30 10:48:51 51°25.956 2°49.988 259.9 13.7 254 22.7
2009-03-30 10:49:51 51°25.899 2°49.638 259.1 13.6 256 22.8
2009-03-30 10:50:50 51°25.843 2°49.294 259.5 13.6 255 22.9
2009-03-30 10:51:50 51°25.815 2°48.977 291.8 9.6 285 23.7
2009-03-30 10:52:50 51°25.879 2°48.82 323.8 5.7 306 23.6
2009-03-30 10:53:50 51°25.925 2°48.7 321.2 4.7 304 23.7
2009-03-30 10:54:50 51°25.965 2°48.605 323.5 3.3 301 23.9
2009-03-30 10:55:50 51°25.975 2°48.554 320.1 1.7 275 23.6
2009-03-30 10:56:50 51°25.974 2°48.518 313.8 1.2 255 23.5
2009-03-30 10:57:50 51°25.967 2°48.49 313.8 1 241 23.2
2009-03-30 10:58:51 51°25.958 2°48.471 321.5 0.9 224 23.2
2009-03-30 10:59:50 51°25.945 2°48.457 334 0.9 209 23.2
2009-03-30 11:00:51 51°25.93 2°48.446 348.2 1.3 199 23.3
2009-03-30 11:01:50 51°25.891 2°48.435 3.2 3.4 192 23.2
2009-03-30 11:02:51 51°25.855 2°48.415 43 0.5 173 23.3
2009-03-30 11:03:50 51°25.834 2°48.457 120.4 3.8 152 23.4
2009-03-30 11:04:51 51°25.735 2°48.464 176.7 8.7 184 23.5
2009-03-30 11:05:50 51°25.553 2°48.439 179.1 12.7 186 23.6
2009-03-30 11:06:50 51°25.341 2°48.405 179.4 12.9 186 29
2009-03-30 11:07:50 51°25.13 2°48.37 179.1 12.8 189 29.1
2009-03-30 11:08:50 51°24.918 2°48.334 180.3 13 187 26.1
2009-03-30 11:09:50 51°24.705 2°48.302 179.4 12.7 186 24.6
2009-03-30 11:10:50 51°24.492 2°48.271 179 12.8 186 23.5
2009-03-30 11:11:50 51°24.279 2°48.244 179.6 12.9 184 21.6
2009-03-30 11:12:50 51°24.065 2°48.212 180.4 13 185 18.4
2009-03-30 11:13:50 51°23.851 2°48.184 179.5 12.9 183 19.5
2009-03-30 11:14:50 51°23.636 2°48.159 178.1 12.9 184 21.7
2009-03-30 11:15:50 51°23.42 2°48.135 179 13 185 18.4
2009-03-30 11:16:50 51°23.204 2°48.108 179.2 13 185 20.1
2009-03-30 11:17:50 51°22.987 2°48.08 178.6 13.1 184 20.6
2009-03-30 11:18:50 51°22.771 2°48.058 179.4 12.9 183 18.3
2009-03-30 11:19:50 51°22.553 2°48.032 179.4 13.1 185 17.1
2009-03-30 11:20:50 51°22.337 2°48.016 178.1 13 182 19.7
2009-03-30 11:21:51 51°22.119 2°48.003 178.6 12.7 181 23.4
2009-03-30 11:22:50 51°21.911 2°47.987 179.5 12.8 182 23.5
2009-03-30 11:23:50 51°21.699 2°47.971 179.4 12.7 186 22.8
2009-03-30 11:24:50 51°21.49 2°47.939 186.3 12.7 191 23.1
2009-03-30 11:25:50 51°21.285 2°47.861 190.5 12.8 194 22.2
2009-03-30 11:26:51 51°21.087 2°47.722 207.6 12.8 210 19.5
2009-03-30 11:27:50 51°20.915 2°47.526 217.2 13 219 20
2009-03-30 11:28:50 51°20.77 2°47.271 232.4 12.9 233 16.6
2009-03-30 11:29:50 51°20.658 2°46.975 243.2 13 242 19.1
2009-03-30 11:30:50 51°20.559 2°46.667 246.5 12.9 245 19
2009-03-30 11:31:50 51°20.492 2°46.341 260.1 12.8 259 18.5
2009-03-30 11:32:51 51°20.452 2°45.999 263.8 12.9 261 21.5
2009-03-30 11:33:50 51°20.414 2°45.666 261.9 13 259 21.5
2009-03-30 11:34:51 51°20.369 2°45.322 260.4 13 258 24.1
2009-03-30 11:35:50 51°20.323 2°44.989 258.8 13.1 256 24.5
2009-03-30 11:36:50 51°20.272 2°44.652 258.6 13 257 25
2009-03-30 11:37:50 51°20.229 2°44.312 260 13.1 258 25.8
2009-03-30 11:38:50 51°20.182 2°43.972 258 13.1 257 26
2009-03-30 11:39:51 51°20.133 2°43.628 258.7 13.1 258 26
2009-03-30 11:40:50 51°20.083 2°43.295 258 13.1 256 26.4
2009-03-30 11:41:50 51°20.04 2°42.953 263.9 13.1 264 25.9
2009-03-30 11:42:50 51°20.013 2°42.609 264.7 13.1 263 25.1
2009-03-30 11:43:50 51°19.985 2°42.265 265.5 13.1 262 23.2
2009-03-30 11:44:50 51°19.958 2°41.922 265.7 13 265 21.8
2009-03-30 11:45:50 51°19.931 2°41.581 264.8 12.9 261 17.9
2009-03-30 11:46:50 51°19.904 2°41.239 265 13 263 19
2009-03-30 11:47:50 51°19.88 2°40.897 266.9 12.8 265 22.5
2009-03-30 11:48:51 51°19.862 2°40.556 266.5 12.6 266 24.2
2009-03-30 11:49:50 51°19.848 2°40.229 270 12.5 267 28.5
2009-03-30 11:50:51 51°19.835 2°39.89 269.8 12.5 268 28.8
2009-03-30 11:51:51 51°19.819 2°39.553 269.4 12.7 266 29.5
2009-03-30 11:52:51 51°19.8 2°39.217 267.5 12.7 264 27.6
2009-03-30 11:53:50 51°19.782 2°38.888 268.7 12.6 265 25.4
2009-03-30 11:54:51 51°19.768 2°38.55 270.1 12.5 267 23.2
2009-03-30 11:55:51 51°19.75 2°38.217 268.3 12.6 263 23
2009-03-30 11:56:50 51°19.728 2°37.891 268.6 12.5 265 21.5
2009-03-30 11:57:51 51°19.713 2°37.553 272 12.6 267 22.8
2009-03-30 11:58:50 51°19.701 2°37.225 271.2 12.6 267 20.8
2009-03-30 11:59:50 51°19.687 2°36.891 270.3 12.5 267 19.9
2009-03-30 12:00:50 51°19.678 2°36.559 272.5 12.5 267 21.6
2009-03-30 12:01:50 51°19.671 2°36.229 273.8 12.4 270 21.6
2009-03-30 12:02:51 51°19.666 2°35.892 271.5 12.4 268 21.4
2009-03-30 12:03:50 51°19.662 2°35.567 273.8 12.5 270 20
2009-03-30 12:04:50 51°19.66 2°35.237 273.5 12.4 270 18
2009-03-30 12:05:50 51°19.655 2°34.909 272.8 12.3 269 14.3
2009-03-30 12:06:51 51°19.653 2°34.575 274.8 12.3 271 17
2009-03-30 12:07:50 51°19.653 2°34.253 274.6 12.5 271 25.6
2009-03-30 12:08:51 51°19.658 2°33.915 274.6 12.6 271 29.6
2009-03-30 12:09:50 51°19.659 2°33.587 273.7 12.5 269 30.5
2009-03-30 12:10:50 51°19.665 2°33.252 277.3 12.6 273 31.5
2009-03-30 12:11:51 51°19.683 2°32.915 279.5 12.5 274 31.6
2009-03-30 12:12:50 51°19.698 2°32.589 279 12.5 274 31.5
2009-03-30 12:13:51 51°19.71 2°32.25 276.8 12.6 272 31.4
2009-03-30 12:14:50 51°19.724 2°31.922 281 12.6 277 31.1
2009-03-30 12:15:51 51°19.747 2°31.583 281.7 12.6 279 30.9
2009-03-30 12:16:50 51°19.77 2°31.267 280.5 11.9 277 29.9
2009-03-30 12:17:51 51°19.791 2°30.95 280.2 11.7 277 23
2009-03-30 12:18:51 51°19.812 2°30.645 280.2 11.5 276 17.7
2009-03-30 12:19:51 51°19.834 2°30.351 278.2 10.6 273 14.4
2009-03-30 12:20:51 51°19.852 2°30.136 299.5 5.8 302 15.2
2009-03-30 12:21:51 51°19.908 2°30.093 354 3.4 358 12.9
2009-03-30 12:22:51 51°19.955 2°30.069 327.6 2.4 337 12.4
2009-03-30 12:23:51 51°19.982 2°30.052 322.6 1.3 340 13.4
2009-03-30 12:24:50 51°19.999 2°30.048 321.3 0.8 3 13.2
2009-03-30 12:25:50 51°20.011 2°30.052 317.8 0.6 24 12.2
2009-03-30 12:26:51 51°20.019 2°30.063 316.8 0.6 48 13.4
2009-03-30 12:27:50 51°20.026 2°30.073 312.9 1 339 14.5
2009-03-30 12:28:50 51°20.022 2°30.024 235.3 3.5 219 15.6
2009-03-30 12:29:51 51°19.942 2°30.044 163.6 6.6 155 15.2
2009-03-30 12:30:51 51°19.832 2°30.195 131.6 10.8 128 12.7
2009-03-30 12:31:51 51°19.72 2°30.463 123.9 12.6 123 17.3
2009-03-30 12:32:51 51°19.596 2°30.728 126.6 12.2 129 22.6
2009-03-30 12:33:51 51°19.464 2°30.973 130.8 12.1 132 30.2
2009-03-30 12:34:51 51°19.332 2°31.216 128.5 12.2 129 31.2
2009-03-30 12:35:51 51°19.207 2°31.469 125 12 126 31.4
2009-03-30 12:36:50 51°19.09 2°31.728 124.3 12.3 125 31.9
2009-03-30 12:37:50 51°18.975 2°31.996 124.1 12.1 124 31.9
2009-03-30 12:38:51 51°18.86 2°32.269 122.6 12 125 32.5
2009-03-30 12:39:51 51°18.749 2°32.54 123.2 12.3 121 30.1
2009-03-30 12:40:51 51°18.639 2°32.813 124.5 12.3 121 29.4
2009-03-30 12:41:51 51°18.526 2°33.089 126 12.5 126 25.9
2009-03-30 12:42:51 51°18.416 2°33.37 123.5 12.6 122 20.4
2009-03-30 12:43:51 51°18.304 2°33.652 125.7 12.6 124 23.2
2009-03-30 12:44:51 51°18.191 2°33.935 123.5 12.7 119 27.2
2009-03-30 12:45:51 51°18.08 2°34.216 124.1 12.4 125 29.1
2009-03-30 12:46:51 51°17.97 2°34.496 123.4 12.5 121 29.1
2009-03-30 12:47:51 51°17.862 2°34.78 123.5 12.6 121 22.5
2009-03-30 12:48:51 51°17.751 2°35.067 125.5 12.7 123 18.8
2009-03-30 12:49:51 51°17.628 2°35.344 129.5 12.9 127 14.8
2009-03-30 12:50:51 51°17.498 2°35.616 130 13 131 13.9
2009-03-30 12:51:51 51°17.367 2°35.888 128.2 13 129 16.9
2009-03-30 12:52:51 51°17.228 2°36.141 137.7 12.7 135 23.5
2009-03-30 12:53:51 51°17.07 2°36.357 144.5 12.5 143 28.4
2009-03-30 12:54:51 51°16.907 2°36.555 145.5 12.3 140 29.7
2009-03-30 12:55:51 51°16.76 2°36.742 144 10.4 140 28.5
2009-03-30 12:56:52 51°16.657 2°36.855 174.3 5.2 170 28.7
2009-03-30 12:57:50 51°16.608 2°36.856 191 2 165 28.5
2009-03-30 12:58:51 51°16.573 2°36.866 204.9 2.1 187 28.6
2009-03-30 12:59:51 51°16.551 2°36.835 253.7 1.9 254 28.6
2009-03-30 13:00:51 51°16.563 2°36.796 303.5 1.3 340 28.7
2009-03-30 13:01:52 51°16.578 2°36.807 337.7 1.2 45 28.6
2009-03-30 13:02:51 51°16.592 2°36.833 358.3 1.3 54 28.6
2009-03-30 13:03:51 51°16.604 2°36.863 6.6 1.3 57 28.7
2009-03-30 13:04:51 51°16.616 2°36.895 7.1 1.4 60 28.9
2009-03-30 13:05:51 51°16.626 2°36.927 3.8 1.4 61 29.1
2009-03-30 13:06:52 51°16.636 2°36.96 2 1.4 67 29.1
2009-03-30 13:07:51 51°16.679 2°36.984 350.4 6.2 358 28.5
2009-03-30 13:08:51 51°16.833 2°37.052 20.3 12 23 29.6
2009-03-30 13:09:51 51°16.912 2°37.31 105.1 11.3 108 30.1
2009-03-30 13:10:51 51°16.768 2°37.436 189.9 10.3 187 28.9
2009-03-30 13:11:51 51°16.585 2°37.417 184.6 11.3 182 28.5
2009-03-30 13:12:52 51°16.396 2°37.4 189.5 11.2 187 26.5
2009-03-30 13:13:51 51°16.214 2°37.371 190.2 11.1 186 21.1
2009-03-30 13:14:51 51°16.027 2°37.357 188.7 11.4 182 14.5
2009-03-30 13:15:52 51°15.836 2°37.351 184.5 11.5 177 13.8
2009-03-30 13:16:51 51°15.646 2°37.392 178.3 11.7 171 13.9
2009-03-30 13:17:51 51°15.452 2°37.444 179.1 11.7 174 15
2009-03-30 13:18:51 51°15.258 2°37.492 178.1 11.8 171 14.5
2009-03-30 13:19:51 51°15.065 2°37.547 179.6 11.6 173 12.6
2009-03-30 13:20:51 51°14.875 2°37.566 184.6 11.4 176 13.6
2009-03-30 13:21:52 51°14.682 2°37.579 186.4 11.3 179 14.6
2009-03-30 13:22:52 51°14.494 2°37.584 186.5 11.2 179 16
2009-03-30 13:23:52 51°14.306 2°37.591 186.3 11.2 179 17.6
2009-03-30 13:24:52 51°14.118 2°37.594 188.5 11.2 181 22.2
2009-03-30 13:25:51 51°13.935 2°37.598 188.4 11.1 180 21.3
2009-03-30 13:26:52 51°13.746 2°37.599 188.9 11.2 180 18.5
2009-03-30 13:27:51 51°13.56 2°37.603 186.2 11.3 178 12.1
2009-03-30 13:28:51 51°13.37 2°37.609 185.9 11.5 179 12.6
2009-03-30 13:29:51 51°13.179 2°37.6 189 11.4 183 13.8
2009-03-30 13:30:51 51°12.989 2°37.598 186.6 11.4 181 14.5
2009-03-30 13:31:50 51°12.804 2°37.575 195.2 11.1 189 14.9
2009-03-30 13:32:51 51°12.617 2°37.532 193.8 11 188 14.6
2009-03-30 13:33:51 51°12.431 2°37.51 190.2 11.2 184 14.7
2009-03-30 13:34:51 51°12.245 2°37.481 192.4 11.2 186 14.8
2009-03-30 13:35:51 51°12.061 2°37.445 194.1 11.1 190 15.2
2009-03-30 13:36:51 51°11.881 2°37.403 192.9 11.2 188 15.9
2009-03-30 13:37:52 51°11.696 2°37.364 192.6 10.9 188 16.3
2009-03-30 13:38:51 51°11.524 2°37.299 204.4 10.6 200 16.7
2009-03-30 13:39:51 51°11.358 2°37.203 204.9 10.5 200 16.3
2009-03-30 13:40:52 51°11.189 2°37.109 203.9 10.6 201 16.1
2009-03-30 13:41:51 51°11.024 2°37.03 201.9 10.5 198 15.1
2009-03-30 13:42:51 51°10.858 2°36.942 205.2 10.5 201 13.9
2009-03-30 13:43:51 51°10.695 2°36.847 205 10.3 202 12.6
2009-03-30 13:44:51 51°10.541 2°36.73 220.7 10.1 217 11.9
2009-03-30 13:45:51 51°10.439 2°36.536 243.8 8.9 249 12.4
2009-03-30 13:46:51 51°10.422 2°36.322 262.5 7.9 266 13
2009-03-30 13:47:50 51°10.415 2°36.118 263.6 7.9 267 13.8
2009-03-30 13:48:51 51°10.396 2°35.911 252 7.7 254 14.1
2009-03-30 13:49:51 51°10.358 2°35.757 247.3 4.8 247 14.4
2009-03-30 13:50:50 51°10.329 2°35.652 239.8 5.4 234 14.3
2009-03-30 13:51:52 51°10.216 2°35.561 196.2 9 185 14.3
2009-03-30 13:52:52 51°10.05 2°35.607 161.9 11 152 17.1
2009-03-30 13:53:52 51°9.954 2°35.891 107.7 13.3 98 21.1
2009-03-30 13:54:51 51°9.969 2°36.255 83.7 14.4 79 21.1
2009-03-30 13:55:52 51°10.014 2°36.561 79.9 9.3 75 21.1
2009-03-30 13:56:51 51°10.048 2°36.753 76.3 6.7 71 20.9
2009-03-30 13:57:52 51°10.087 2°36.901 65.9 5.5 66 21
2009-03-30 13:58:51 51°10.119 2°37.025 75.7 5.1 69 21.3
2009-03-30 13:59:52 51°10.139 2°37.231 89.1 10.9 84 21.2
2009-03-30 14:00:52 51°10.196 2°37.571 73.1 14.1 70 20.9
2009-03-30 14:01:51 51°10.271 2°37.924 73.4 14.3 71 20.1
2009-03-30 14:02:52 51°10.35 2°38.285 73.4 14.2 72 19.5
2009-03-30 14:03:52 51°10.421 2°38.644 74.3 14.2 73 19.6
2009-03-30 14:04:51 51°10.492 2°38.995 74.6 14.2 72 19
2009-03-30 14:05:52 51°10.564 2°39.359 75.1 14.2 73 18.4
2009-03-30 14:06:52 51°10.634 2°39.717 75.9 14.1 75 17.8
2009-03-30 14:07:51 51°10.693 2°40.071 78.5 14.1 76 17.1
2009-03-30 14:08:52 51°10.744 2°40.444 80.8 14.1 78 16.5
2009-03-30 14:09:52 51°10.797 2°40.809 79.1 14.2 76 15.9
2009-03-30 14:10:52 51°10.864 2°41.168 75.2 14.2 73 15.5
2009-03-30 14:11:52 51°10.93 2°41.514 75.4 12.3 73 15.5
2009-03-30 14:12:51 51°10.984 2°41.782 75 9.3 73 15.6
2009-03-30 14:13:52 51°11.04 2°41.943 36.6 5.3 49 15.6
2009-03-30 14:14:52 51°11.081 2°42.031 50.9 3.2 61 15.5
2009-03-30 14:15:52 51°11.101 2°42.099 60.8 2.8 66 15.5
2009-03-30 14:16:52 51°11.119 2°42.165 60.8 2.7 70 15.5
2009-03-30 14:17:52 51°11.136 2°42.229 57 2.6 68 15.5
2009-03-30 14:18:52 51°11.153 2°42.29 53.5 2.4 66 15.5
2009-03-30 14:19:51 51°11.172 2°42.357 56.9 3.4 64 15.3
2009-03-30 14:20:52 51°11.19 2°42.46 93.7 4.8 84 15.5
2009-03-30 14:21:52 51°11.184 2°42.663 104 10.1 97 15.6
2009-03-30 14:22:51 51°11.167 2°42.985 97 13.5 91 15.8
2009-03-30 14:23:52 51°11.211 2°43.347 76.6 13.7 74 15.8
2009-03-30 14:24:52 51°11.288 2°43.69 71.2 13.8 68 15.8
2009-03-30 14:25:52 51°11.365 2°44.035 73.4 13.8 73 15.9
2009-03-30 14:26:52 51°11.439 2°44.383 74.1 13.9 71 15.9
2009-03-30 14:27:51 51°11.511 2°44.725 73.9 13.9 71 15.9
2009-03-30 14:28:52 51°11.586 2°45.079 74.5 13.8 72 16
2009-03-30 14:29:52 51°11.658 2°45.426 74.4 13.8 72 16
2009-03-30 14:30:52 51°11.735 2°45.772 72.3 13.9 69 16
2009-03-30 14:31:52 51°11.81 2°46.121 75.1 13.9 73 16
2009-03-30 14:32:52 51°11.882 2°46.473 74.8 13.9 72 16
2009-03-30 14:33:52 51°11.953 2°46.824 74.7 13.8 71 15.8
2009-03-30 14:34:52 51°12.028 2°47.174 74.6 13.9 72 15.7
2009-03-30 14:35:52 51°12.106 2°47.523 73.2 14 70 15.5
2009-03-30 14:36:51 51°12.183 2°47.865 73.8 13.9 71 15.4
2009-03-30 14:37:52 51°12.29 2°48.203 64.5 14.1 63 15.2
2009-03-30 14:38:52 51°12.402 2°48.53 64 14.1 62 15.1
2009-03-30 14:39:52 51°12.512 2°48.859 64.8 14.1 62 14.9
2009-03-30 14:40:52 51°12.622 2°49.187 64.6 14 62 14.9
2009-03-30 14:41:52 51°12.731 2°49.513 64.5 14 61 14.7
2009-03-30 14:42:52 51°12.846 2°49.835 61.8 13.9 60 14.6
2009-03-30 14:43:52 51°12.958 2°50.16 65 14.1 63 14.4
2009-03-30 14:44:52 51°13.063 2°50.494 65.2 14 63 14.3
2009-03-30 14:45:51 51°13.183 2°50.804 59.3 14 57 14.2
2009-03-30 14:46:51 51°13.308 2°51.116 58.8 13.9 57 14.1
2009-03-30 14:47:52 51°13.439 2°51.43 56.9 14 55 14
2009-03-30 14:48:52 51°13.566 2°51.739 59.9 13.9 60 13.9
2009-03-30 14:49:52 51°13.689 2°52.054 59.6 13.9 57 13.8
2009-03-30 14:50:51 51°13.811 2°52.359 57.8 13.9 56 13.7
2009-03-30 14:51:51 51°13.936 2°52.665 60.4 13.7 57 13.7
2009-03-30 14:52:51 51°14.058 2°52.975 60.5 13.9 57 13.5
2009-03-30 14:53:51 51°14.18 2°53.286 59.7 13.8 58 13.1
2009-03-30 14:54:51 51°14.301 2°53.595 61.9 13.7 60 12.9
2009-03-30 14:55:52 51°14.387 2°53.93 79.4 13.3 77 12.7
2009-03-30 14:56:51 51°14.416 2°54.273 95.1 13.1 91 12.3
2009-03-30 14:57:51 51°14.415 2°54.619 97.7 13 95 13.5
2009-03-30 14:58:51 51°14.377 2°54.955 113.7 12.7 110 13
2009-03-30 14:59:51 51°14.275 2°55.216 129.8 10.5 130 13.6
2009-03-30 15:00:51 51°14.163 2°55.38 146.7 8.4 147 13.7
2009-03-30 15:01:56 51°14.032 2°55.482 155.4 7.9 155 13.7
2009-03-30 15:02:56 51°13.916 2°55.565 155.9 7.5 156 -999
2009-03-30 15:03:56 51°13.803 2°55.649 151.4 7.4 154 -999
2009-03-30 15:04:56 51°13.721 2°55.765 128.8 5.9 129 -999
2009-03-30 15:05:56 51°13.677 2°55.875 110 4 113 -999
2009-03-30 15:06:56 51°13.665 2°55.946 107.9 2 106 -999